Time;durP1;ratioP1;P1;durP2;ratioP2;P2;SDS_P1;SDS_P2;PMS_P1;PMS_P2;Temp;Humidity;BMP_temperature;BMP_pressure;BME280_temperature;BME280_humidity;BME280_pressure;Samples;Min_cycle;Max_cycle;Signal;HPM_P1;HPM_P2
2023/02/19 00:02:05;;;;;;;;;;;;;;;11.60;71.54;100292.13;4981673;28;19924;-50
2023/02/19 00:04:30;;;;;;;;;;;;;;;12.19;69.81;100332.50;4981209;28;19922;-48
2023/02/19 00:06:55;;;;;;;;;;;;;;;12.65;68.01;100352.34;4983876;28;19949;-50
2023/02/19 00:09:21;;;;;;;;;;;;;;;12.34;70.62;100291.75;4979579;28;19925;-52
2023/02/19 00:11:46;;;;;;;;;;;;;;;12.35;69.84;100284.84;4981391;28;19914;-49
2023/02/19 00:14:15;;;;;;;;;;;;;;;13.26;68.24;100303.69;4981196;28;19921;-49
2023/02/19 00:16:41;;;;;;;;;;;;;;;12.63;70.79;100219.72;4979599;28;20683;-49
2023/02/19 00:19:07;;;;;;;;;;;;;;;12.01;71.18;100195.09;4980064;28;19929;-52
2023/02/19 00:21:32;;;;;;;;;;;;;;;12.07;68.68;100256.97;4980859;28;20031;-51
2023/02/19 00:23:59;;;;;;;;;;;;;;;12.05;67.90;100273.38;4981238;28;20394;-52
2023/02/19 00:26:24;;;;;;;;;;;;;;;12.39;67.98;100299.44;4978215;28;19922;-49
2023/02/19 00:28:50;;;;;;;;;;;;;;;11.54;72.09;100265.56;4980975;28;19972;-53
2023/02/19 00:31:25;;;;;;;;;;;;;;;11.48;70.25;100302.63;4981446;28;20375;-50
2023/02/19 00:33:51;;;;;;;;;;;;;;;11.56;70.03;100341.22;4980579;28;19920;-51
2023/02/19 00:36:17;;;;;;;;;;;;;;;11.75;72.01;100393.44;4981121;28;20370;-50
2023/02/19 00:38:42;;;;;;;;;;;;;;;11.62;75.58;100414.22;4981607;28;20009;-51
2023/02/19 00:41:20;;;;;;;;;;;;;;;11.71;78.73;100447.63;5020366;28;19927;-48
2023/02/19 00:43:49;;;;;;;;;;;;;;;11.49;81.54;100459.13;4979516;28;19925;-50
2023/02/19 00:46:15;;;;;;;;;;;;;;;11.49;84.15;100485.78;4984175;28;19917;-49
2023/02/19 00:48:40;;;;;;;;;;;;;;;11.55;87.73;100510.66;4981811;28;19913;-48
2023/02/19 00:51:05;;;;;;;;;;;;;;;11.55;89.44;100531.28;4980823;28;19921;-50
2023/02/19 00:53:31;;;;;;;;;;;;;;;11.26;92.59;100540.19;4978908;28;19922;-49
2023/02/19 00:55:56;;;;;;;;;;;;;;;11.58;94.66;100582.84;4979923;28;19948;-48
2023/02/19 00:58:21;;;;;;;;;;;;;;;11.87;95.09;100600.63;4978498;28;19926;-48
2023/02/19 01:00:46;;;;;;;;;;;;;;;11.36;96.81;100571.03;4980355;28;20274;-50
2023/02/19 01:03:11;;;;;;;;;;;;;;;11.36;98.55;100582.22;4980517;28;19948;-48
2023/02/19 01:05:37;;;;;;;;;;;;;;;11.82;99.81;100615.28;4980327;28;19917;-48
2023/02/19 01:08:02;;;;;;;;;;;;;;;11.46;100.00;100582.97;4978975;28;19922;-50
2023/02/19 01:10:27;;;;;;;;;;;;;;;11.70;100.00;100603.38;5001587;28;20047;-48
2023/02/19 01:12:52;;;;;;;;;;;;;;;11.54;100.00;100607.00;5013232;28;19987;-49
2023/02/19 01:15:18;;;;;;;;;;;;;;;11.75;100.00;100610.22;4980043;28;19921;-48
2023/02/19 01:17:43;;;;;;;;;;;;;;;11.61;100.00;100577.66;4978288;28;20371;-51
2023/02/19 01:20:08;;;;;;;;;;;;;;;11.55;100.00;100588.03;4981606;28;20399;-48
2023/02/19 01:22:33;;;;;;;;;;;;;;;11.37;100.00;100565.88;4979950;28;19922;-49
2023/02/19 01:24:59;;;;;;;;;;;;;;;11.49;100.00;100588.97;4980236;28;20024;-49
2023/02/19 01:27:24;;;;;;;;;;;;;;;11.71;100.00;100620.56;4978738;28;19925;-48
2023/02/19 01:29:49;;;;;;;;;;;;;;;12.04;100.00;100634.00;4999009;28;19922;-47
2023/02/19 01:32:14;;;;;;;;;;;;;;;11.56;100.00;100571.69;4980110;28;19922;-48
2023/02/19 01:34:39;;;;;;;;;;;;;;;11.52;100.00;100578.63;4980035;28;19917;-47
2023/02/19 01:37:06;;;;;;;;;;;;;;;11.71;100.00;100605.06;4979445;28;19932;-48
2023/02/19 01:39:32;;;;;;;;;;;;;;;11.64;100.00;100576.78;4979813;28;19917;-48
2023/02/19 01:41:57;;;;;;;;;;;;;;;11.35;100.00;100551.28;4979773;28;19929;-48
2023/02/19 01:44:22;;;;;;;;;;;;;;;11.58;100.00;100557.03;4979382;28;19928;-50
2023/02/19 01:46:50;;;;;;;;;;;;;;;11.51;100.00;100557.97;4979260;28;19921;-49
2023/02/19 01:49:47;;;;;;;;;;;;;;;11.64;100.00;100566.47;4979860;28;19922;-50
2023/02/19 01:52:12;;;;;;;;;;;;;;;12.12;100.00;100575.34;4982233;28;19922;-50
2023/02/19 01:54:38;;;;;;;;;;;;;;;11.79;98.86;100540.47;4978472;28;19932;-48
2023/02/19 01:57:05;;;;;;;;;;;;;;;11.88;98.75;100531.78;5004402;28;19940;-48
2023/02/19 01:59:30;;;;;;;;;;;;;;;11.87;98.08;100528.34;5014890;28;20029;-49
2023/02/19 02:01:56;;;;;;;;;;;;;;;11.88;97.24;100500.78;4978842;28;20450;-51
2023/02/19 02:04:21;;;;;;;;;;;;;;;11.78;96.84;100500.03;4979228;28;20366;-49
2023/02/19 02:06:54;;;;;;;;;;;;;;;11.59;97.94;100496.84;5012447;28;19920;-49
2023/02/19 02:12:03;;;;;;;;;;;;;;;11.62;100.00;100529.50;4979851;28;19932;-51
2023/02/19 02:14:29;;;;;;;;;;;;;;;11.76;100.00;100513.84;4978527;28;19918;-49
2023/02/19 02:16:58;;;;;;;;;;;;;;;11.60;98.73;100503.69;5012614;28;19921;-48
2023/02/19 02:19:41;;;;;;;;;;;;;;;11.80;99.12;100512.94;4980143;28;19926;-48
2023/02/19 02:22:11;;;;;;;;;;;;;;;11.36;99.34;100486.78;4983172;28;19924;-51
2023/02/19 02:24:42;;;;;;;;;;;;;;;11.71;99.59;100509.59;4982002;28;19968;-48
2023/02/19 02:27:21;;;;;;;;;;;;;;;11.97;99.19;100518.75;4982951;28;19949;-51
2023/02/19 02:29:50;;;;;;;;;;;;;;;11.55;99.70;100477.09;5022572;28;19917;-49
2023/02/19 02:32:16;;;;;;;;;;;;;;;11.46;100.00;100496.13;5028178;28;20577;-51
2023/02/19 02:34:45;;;;;;;;;;;;;;;11.46;100.00;100505.59;4984118;28;19933;-53
2023/02/19 02:37:10;;;;;;;;;;;;;;;11.12;100.00;100498.22;5020001;28;20020;-53
2023/02/19 02:39:35;;;;;;;;;;;;;;;11.26;100.00;100540.19;5028047;28;21023;-52
2023/02/19 02:47:41;;;;;;;;;;;;;;;11.05;100.00;100579.06;4982221;28;19932;-53
2023/02/19 02:50:12;;;;;;;;;;;;;;;11.12;100.00;100613.41;5015984;28;21046;-52
2023/02/19 02:55:21;;;;;;;;;;;;;;;10.83;100.00;100664.31;5013226;28;19927;-54
2023/02/19 02:57:46;;;;;;;;;;;;;;;10.58;100.00;100694.50;5014529;28;19921;-55
2023/02/19 03:00:12;;;;;;;;;;;;;;;10.89;100.00;100777.66;4996633;28;20012;-54
2023/02/19 03:02:38;;;;;;;;;;;;;;;10.71;100.00;100808.66;4982193;28;19918;-54
2023/02/19 03:08:11;;;;;;;;;;;;;;;10.42;100.00;100868.88;5015283;28;19924;-52
2023/02/19 03:10:54;;;;;;;;;;;;;;;10.55;100.00;100922.94;4981567;28;19925;-52
2023/02/19 03:21:37;;;;;;;;;;;;;;;10.39;100.00;101069.75;4982394;28;19944;-56
2023/02/19 03:26:52;;;;;;;;;;;;;;;10.26;100.00;101101.44;4981647;28;19933;-54
2023/02/19 03:29:24;;;;;;;;;;;;;;;10.55;100.00;101152.22;5019115;28;19924;-54
2023/02/19 03:31:56;;;;;;;;;;;;;;;10.98;100.00;101184.09;4979750;28;19918;-55
2023/02/19 03:34:24;;;;;;;;;;;;;;;10.74;100.00;101155.69;4981837;28;19936;-54
2023/02/19 03:36:51;;;;;;;;;;;;;;;10.72;100.00;101158.28;5018468;28;20008;-53
2023/02/19 03:39:17;;;;;;;;;;;;;;;11.04;100.00;101188.41;5021927;28;19953;-54
2023/02/19 03:41:47;;;;;;;;;;;;;;;10.64;100.00;101129.91;5021055;28;19925;-53
2023/02/19 03:44:12;;;;;;;;;;;;;;;10.69;100.00;101135.06;5025406;28;20024;-54
2023/02/19 03:46:37;;;;;;;;;;;;;;;10.56;100.00;101129.03;4981130;28;20036;-54
2023/02/19 03:49:04;;;;;;;;;;;;;;;10.63;100.00;101130.78;4981424;28;20023;-54
2023/02/19 03:51:38;;;;;;;;;;;;;;;10.43;100.00;101117.84;5020428;28;19980;-53
2023/02/19 03:54:22;;;;;;;;;;;;;;;10.37;100.00;101122.13;4981481;28;20017;-53
2023/02/19 03:57:09;;;;;;;;;;;;;;;10.02;100.00;101095.34;5016697;28;19937;-54
2023/02/19 03:59:39;;;;;;;;;;;;;;;10.45;100.00;101167.66;5009936;28;19922;-52
2023/02/19 04:02:25;;;;;;;;;;;;;;;10.59;100.00;101200.34;5022752;28;20533;-53
2023/02/19 04:04:55;;;;;;;;;;;;;;;10.59;100.00;101205.50;5013849;28;19925;-51
2023/02/19 04:07:20;;;;;;;;;;;;;;;10.27;100.00;101193.31;4980617;28;20482;-53
2023/02/19 04:09:46;;;;;;;;;;;;;;;10.48;100.00;101207.16;4980559;28;19925;-53
2023/02/19 04:12:11;;;;;;;;;;;;;;;10.66;100.00;101244.16;4980651;28;19921;-54
2023/02/19 04:14:48;;;;;;;;;;;;;;;10.63;100.00;101245.88;4979890;28;19976;-53
2023/02/19 04:17:33;;;;;;;;;;;;;;;10.54;100.00;101254.41;4977851;28;19984;-55
2023/02/19 04:19:58;;;;;;;;;;;;;;;10.23;100.00;101248.22;5016027;28;19921;-53
2023/02/19 04:22:23;;;;;;;;;;;;;;;10.13;100.00;101247.31;5014555;28;19928;-53
2023/02/19 04:24:49;;;;;;;;;;;;;;;10.11;100.00;101276.47;5011503;28;19926;-54
2023/02/19 04:27:15;;;;;;;;;;;;;;;10.00;100.00;101274.69;4979511;28;19921;-53
2023/02/19 04:29:40;;;;;;;;;;;;;;;10.28;100.00;101303.19;5018668;28;19926;-54
2023/02/19 04:32:05;;;;;;;;;;;;;;;10.14;100.00;101312.53;4980898;28;20272;-50
2023/02/19 04:34:31;;;;;;;;;;;;;;;10.29;100.00;101315.25;5019746;28;19913;-50
2023/02/19 04:36:56;;;;;;;;;;;;;;;10.20;100.00;101318.59;4980860;28;19973;-53
2023/02/19 04:39:21;;;;;;;;;;;;;;;10.34;100.00;101325.59;4979536;28;19989;-54
2023/02/19 04:41:46;;;;;;;;;;;;;;;10.26;100.00;101315.19;4979886;28;19921;-54
2023/02/19 04:44:11;;;;;;;;;;;;;;;10.21;100.00;101316.88;4980713;28;19929;-54
2023/02/19 04:46:37;;;;;;;;;;;;;;;10.30;100.00;101327.25;4978954;28;19940;-53
2023/02/19 04:49:02;;;;;;;;;;;;;;;10.34;100.00;101344.47;4979816;28;19921;-54
2023/02/19 04:51:27;;;;;;;;;;;;;;;10.12;100.00;101306.50;4979432;28;19928;-53
2023/02/19 04:53:54;;;;;;;;;;;;;;;10.21;100.00;101322.03;4980412;28;19960;-54
2023/02/19 04:56:19;;;;;;;;;;;;;;;10.02;100.00;101319.31;4978980;28;20008;-56
2023/02/19 04:58:45;;;;;;;;;;;;;;;10.08;100.00;101330.50;4975347;28;20036;-56
2023/02/19 05:01:10;;;;;;;;;;;;;;;10.15;100.00;101347.72;4978899;28;19925;-55
2023/02/19 05:03:36;;;;;;;;;;;;;;;10.28;100.00;101375.28;4979573;28;20462;-54
2023/02/19 05:06:05;;;;;;;;;;;;;;;10.34;100.00;101380.53;4979131;28;19918;-54
2023/02/19 05:08:30;;;;;;;;;;;;;;;10.26;100.00;101372.72;4979917;28;19922;-55
2023/02/19 05:10:59;;;;;;;;;;;;;;;10.00;100.00;101359.63;4978509;28;19925;-54
2023/02/19 05:13:24;;;;;;;;;;;;;;;10.04;100.00;101358.81;4979354;28;19925;-53
2023/02/19 05:15:53;;;;;;;;;;;;;;;10.06;100.00;101374.28;4979136;28;19921;-52
2023/02/19 05:18:18;;;;;;;;;;;;;;;10.03;100.00;101380.28;4979833;28;19928;-54
2023/02/19 05:20:44;;;;;;;;;;;;;;;10.08;100.00;101382.00;4978063;28;19918;-54
2023/02/19 05:23:09;;;;;;;;;;;;;;;10.25;100.00;101403.59;4980208;28;19922;-54
2023/02/19 05:25:34;;;;;;;;;;;;;;;10.07;100.00;101385.44;4979434;28;19933;-54
2023/02/19 05:28:15;;;;;;;;;;;;;;;10.48;100.00;101419.25;4979139;28;19913;-53
2023/02/19 05:30:41;;;;;;;;;;;;;;;10.28;100.00;101390.75;4980828;28;20028;-54
2023/02/19 05:33:06;;;;;;;;;;;;;;;10.14;100.00;101371.75;4980055;28;20533;-54
2023/02/19 05:35:31;;;;;;;;;;;;;;;10.23;100.00;101376.97;4979928;28;20001;-53
2023/02/19 05:37:56;;;;;;;;;;;;;;;10.13;100.00;101364.91;4979015;28;19922;-53
2023/02/19 05:40:21;;;;;;;;;;;;;;;10.13;100.00;101364.91;4979539;28;19976;-54
2023/02/19 05:42:47;;;;;;;;;;;;;;;10.25;100.00;101381.28;4980137;28;19926;-51
2023/02/19 05:45:12;;;;;;;;;;;;;;;10.17;100.00;101372.66;4979617;28;19926;-53
2023/02/19 05:47:37;;;;;;;;;;;;;;;10.14;100.00;101356.31;4979139;28;19925;-54
2023/02/19 05:50:02;;;;;;;;;;;;;;;9.92;100.00;101335.56;4979302;28;19929;-55
2023/02/19 05:52:28;;;;;;;;;;;;;;;10.19;100.00;101362.34;4979406;28;20798;-55
2023/02/19 05:54:53;;;;;;;;;;;;;;;10.17;100.00;101361.47;4980788;28;20272;-55
2023/02/19 05:57:19;;;;;;;;;;;;;;;9.83;100.00;101336.34;4982285;28;20024;-55
2023/02/19 05:59:44;;;;;;;;;;;;;;;10.16;100.00;101359.75;4981409;28;19957;-54
2023/02/19 06:02:09;;;;;;;;;;;;;;;9.98;100.00;101345.88;4982699;28;20582;-52
2023/02/19 06:04:35;;;;;;;;;;;;;;;10.14;100.00;101352.00;5015233;28;20497;-54
2023/02/19 06:07:00;;;;;;;;;;;;;;;9.90;100.00;101329.53;5017257;28;19925;-54
2023/02/19 06:09:25;;;;;;;;;;;;;;;9.98;100.00;101347.59;4996762;28;19925;-55
2023/02/19 06:11:50;;;;;;;;;;;;;;;10.03;100.00;101349.38;4982438;28;19964;-55
2023/02/19 06:14:15;;;;;;;;;;;;;;;10.21;100.00;101368.38;4983028;28;19928;-56
2023/02/19 06:16:41;;;;;;;;;;;;;;;10.09;100.00;101355.41;4981148;28;19929;-56
2023/02/19 06:19:06;;;;;;;;;;;;;;;9.93;100.00;101326.13;4982709;28;19937;-57
2023/02/19 06:21:31;;;;;;;;;;;;;;;9.99;100.00;101342.47;4982980;28;19926;-55
2023/02/19 06:23:56;;;;;;;;;;;;;;;10.03;100.00;101333.94;4982764;28;20004;-56
2023/02/19 06:26:22;;;;;;;;;;;;;;;10.36;100.00;101363.38;4981181;28;20331;-56
2023/02/19 06:28:48;;;;;;;;;;;;;;;10.09;100.00;101333.09;4982875;28;19940;-55
2023/02/19 06:31:14;;;;;;;;;;;;;;;10.10;100.00;101333.97;4982028;28;19918;-56
2023/02/19 06:33:39;;;;;;;;;;;;;;;10.26;100.00;101340.94;4982629;28;20628;-57
2023/02/19 06:36:04;;;;;;;;;;;;;;;9.88;100.00;101308.06;4981397;28;19953;-57
2023/02/19 06:38:30;;;;;;;;;;;;;;;9.83;100.00;101304.59;4981171;28;20012;-57
2023/02/19 06:40:58;;;;;;;;;;;;;;;10.10;100.00;101344.25;4981812;28;19933;-57
2023/02/19 06:43:24;;;;;;;;;;;;;;;9.67;100.00;101318.16;4982858;28;20016;-57
2023/02/19 06:45:49;;;;;;;;;;;;;;;9.91;100.00;101351.84;4982062;28;20008;-58
2023/02/19 06:48:14;;;;;;;;;;;;;;;10.03;100.00;101387.09;4981846;28;20021;-57
2023/02/19 06:50:39;;;;;;;;;;;;;;;10.13;100.00;101400.94;4980882;28;21149;-56
2023/02/19 06:53:04;;;;;;;;;;;;;;;9.98;100.00;101396.50;4979959;28;19925;-57
2023/02/19 06:55:30;;;;;;;;;;;;;;;10.16;100.00;101416.41;4981339;28;19959;-56
2023/02/19 06:57:55;;;;;;;;;;;;;;;9.75;100.00;101394.56;4981323;28;19953;-58
2023/02/19 07:00:20;;;;;;;;;;;;;;;9.80;100.00;101398.06;5007179;28;19924;-57
2023/02/19 07:02:45;;;;;;;;;;;;;;;9.78;100.00;101398.88;4979853;28;19949;-57
2023/02/19 07:05:11;;;;;;;;;;;;;;;9.80;100.00;101422.94;4988920;28;19941;-57
2023/02/19 07:07:36;;;;;;;;;;;;;;;9.84;100.00;101445.28;4983770;28;19922;-56
2023/02/19 07:10:01;;;;;;;;;;;;;;;10.01;100.00;101478.91;4980366;28;19922;-54
2023/02/19 07:12:26;;;;;;;;;;;;;;;9.99;100.00;101478.91;4980166;28;19928;-55
2023/02/19 07:14:53;;;;;;;;;;;;;;;9.95;100.00;101486.59;4981089;28;21573;-57
2023/02/19 07:17:19;;;;;;;;;;;;;;;10.09;100.00;101502.16;5018801;28;19952;-57
2023/02/19 07:19:44;;;;;;;;;;;;;;;10.09;100.00;101504.75;4984001;28;19922;-57
2023/02/19 07:22:09;;;;;;;;;;;;;;;9.99;100.00;101491.78;4980034;28;19925;-57
2023/02/19 07:24:35;;;;;;;;;;;;;;;10.14;100.00;101496.19;4981636;28;19925;-56
2023/02/19 07:27:00;;;;;;;;;;;;;;;9.76;100.00;101457.19;4982875;28;19921;-56
2023/02/19 07:29:25;;;;;;;;;;;;;;;10.00;100.00;101490.06;4981558;28;20306;-54
2023/02/19 07:31:50;;;;;;;;;;;;;;;9.96;100.00;101486.56;4986875;28;19968;-54
2023/02/19 07:34:15;;;;;;;;;;;;;;;10.07;100.00;101514.16;4981420;28;19921;-56
2023/02/19 07:36:41;;;;;;;;;;;;;;;9.78;100.00;101491.53;4980729;28;19929;-57
2023/02/19 07:39:06;;;;;;;;;;;;;;;9.86;100.00;101520.81;4981937;28;19921;-57
2023/02/19 07:41:31;;;;;;;;;;;;;;;10.28;100.00;101565.88;4981985;28;19933;-56
2023/02/19 07:43:56;;;;;;;;;;;;;;;9.87;100.00;101512.22;4981324;28;19954;-55
2023/02/19 07:46:22;;;;;;;;;;;;;;;9.92;100.00;101514.84;5018401;28;20406;-56
2023/02/19 07:48:47;;;;;;;;;;;;;;;9.81;100.00;101501.88;4979687;28;19921;-56
2023/02/19 07:51:15;;;;;;;;;;;;;;;10.21;100.00;101554.63;4980505;28;19972;-57
2023/02/19 07:53:40;;;;;;;;;;;;;;;9.85;100.00;101529.34;4981054;28;19918;-58
2023/02/19 07:56:06;;;;;;;;;;;;;;;9.88;100.00;101550.00;5002940;28;19932;-58
2023/02/19 07:58:32;;;;;;;;;;;;;;;9.87;100.00;101563.69;4978737;28;19948;-57
2023/02/19 08:01:04;;;;;;;;;;;;;;;9.90;100.00;101568.00;4981525;28;19966;-58
2023/02/19 08:03:30;;;;;;;;;;;;;;;9.67;100.00;101555.75;5022088;28;19921;-57
2023/02/19 08:05:55;;;;;;;;;;;;;;;9.82;100.00;101586.81;4980144;28;19936;-57
2023/02/19 08:08:20;;;;;;;;;;;;;;;9.71;100.00;101584.94;5024556;28;19921;-57
2023/02/19 08:13:29;;;;;;;;;;;;;;;9.80;100.00;101634.81;4981141;28;20000;-57
2023/02/19 08:15:54;;;;;;;;;;;;;;;9.69;100.00;101622.66;4979019;28;19922;-57
2023/02/19 08:18:21;;;;;;;;;;;;;;;9.73;100.00;101638.16;4983845;28;20486;-57
2023/02/19 08:20:46;;;;;;;;;;;;;;;9.62;100.00;101643.16;4979317;28;20441;-58
2023/02/19 08:23:12;;;;;;;;;;;;;;;9.53;100.00;101640.44;4977766;28;19929;-56
2023/02/19 08:25:37;;;;;;;;;;;;;;;9.77;100.00;101686.25;4980388;28;19917;-56
2023/02/19 08:28:03;;;;;;;;;;;;;;;9.78;100.00;101707.69;4979313;28;20394;-56
2023/02/19 08:30:28;;;;;;;;;;;;;;;9.86;100.00;101715.56;4980179;28;20382;-56
2023/02/19 08:32:53;;;;;;;;;;;;;;;9.70;100.00;101694.72;4978873;28;19918;-55
2023/02/19 08:35:19;;;;;;;;;;;;;;;9.76;100.00;101704.25;4979165;28;19921;-56
2023/02/19 08:37:44;;;;;;;;;;;;;;;9.67;100.00;101699.84;5014982;28;20789;-55
2023/02/19 08:40:09;;;;;;;;;;;;;;;9.95;100.00;101732.00;4978903;28;19928;-55
2023/02/19 08:42:35;;;;;;;;;;;;;;;9.60;100.00;101692.84;4979919;28;20390;-55
2023/02/19 08:45:00;;;;;;;;;;;;;;;9.50;100.00;101702.13;5012776;28;19933;-54
2023/02/19 08:47:25;;;;;;;;;;;;;;;9.82;100.00;101745.50;4977513;28;20394;-54
2023/02/19 08:49:50;;;;;;;;;;;;;;;10.08;100.00;101799.09;4979149;28;20368;-54
2023/02/19 08:52:16;;;;;;;;;;;;;;;10.08;100.00;101791.38;4980407;28;20422;-55
2023/02/19 08:54:41;;;;;;;;;;;;;;;9.83;100.00;101784.16;4977291;28;20376;-55
2023/02/19 08:57:06;;;;;;;;;;;;;;;9.90;100.00;101785.13;5001718;28;19921;-56
2023/02/19 08:59:31;;;;;;;;;;;;;;;10.15;100.00;101800.91;4977208;28;20007;-56
2023/02/19 09:01:57;;;;;;;;;;;;;;;10.38;100.00;101824.50;4978796;28;20310;-55
2023/02/19 09:04:22;;;;;;;;;;;;;;;10.04;100.00;101777.59;4979695;28;20342;-55
2023/02/19 09:06:47;;;;;;;;;;;;;;;10.30;100.00;101795.16;5010224;28;19922;-55
2023/02/19 09:09:12;;;;;;;;;;;;;;;10.21;100.00;101770.09;4979614;28;19921;-54
2023/02/19 09:11:38;;;;;;;;;;;;;;;10.27;100.00;101762.47;4981928;28;19921;-54
2023/02/19 09:14:06;;;;;;;;;;;;;;;10.55;100.00;101770.59;4976519;28;19922;-55
2023/02/19 09:16:31;;;;;;;;;;;;;;;10.34;100.00;101736.00;4976113;28;19921;-55
2023/02/19 09:18:56;;;;;;;;;;;;;;;10.20;100.00;101720.31;5013883;28;19987;-57
2023/02/19 09:21:22;;;;;;;;;;;;;;;9.99;100.00;101691.69;4979428;28;20398;-59
2023/02/19 09:23:47;;;;;;;;;;;;;;;9.86;100.00;101669.22;4978506;28;20494;-57
2023/02/19 09:26:12;;;;;;;;;;;;;;;9.84;100.00;101685.50;4976069;28;19921;-57
2023/02/19 09:28:40;;;;;;;;;;;;;;;10.29;100.00;101737.66;4975789;28;19922;-57
2023/02/19 09:31:06;;;;;;;;;;;;;;;10.25;100.00;101725.53;4976550;28;19922;-57
2023/02/19 09:33:31;;;;;;;;;;;;;;;9.73;100.00;101686.19;4978835;28;20382;-55
2023/02/19 09:35:59;;;;;;;;;;;;;;;9.80;100.00;101691.44;4976935;28;19922;-56
2023/02/19 09:38:25;;;;;;;;;;;;;;;9.62;100.00;101692.06;4977957;28;19917;-55
2023/02/19 09:40:50;;;;;;;;;;;;;;;9.84;100.00;101739.53;4978755;28;19928;-52
2023/02/19 09:43:16;;;;;;;;;;;;;;;10.33;100.00;101801.25;4979668;28;20842;-55
2023/02/19 09:45:41;;;;;;;;;;;;;;;9.95;100.00;101778.31;4979289;28;20363;-54
2023/02/19 09:48:09;;;;;;;;;;;;;;;10.10;100.00;101790.53;4977492;28;19918;-54
2023/02/19 09:50:38;;;;;;;;;;;;;;;9.98;100.00;101785.22;5021672;28;20453;-56
2023/02/19 09:53:05;;;;;;;;;;;;;;;10.08;100.00;101799.09;5015756;28;20294;-55
2023/02/19 09:55:31;;;;;;;;;;;;;;;9.96;100.00;101790.34;4977316;28;20842;-54
2023/02/19 09:57:57;;;;;;;;;;;;;;;9.88;100.00;101797.09;5024677;28;19921;-54
2023/02/19 10:00:23;;;;;;;;;;;;;;;10.05;100.00;101823.94;5011023;28;19980;-54
2023/02/19 10:03:10;;;;;;;;;;;;;;;10.03;100.00;101825.66;4978832;28;19925;-54
2023/02/19 10:05:35;;;;;;;;;;;;;;;9.78;100.00;101805.50;5010536;28;19926;-55
2023/02/19 10:08:00;;;;;;;;;;;;;;;10.16;100.00;101861.91;5009324;28;20602;-55
2023/02/19 10:10:35;;;;;;;;;;;;;;;10.14;100.00;101851.56;5026238;28;19928;-56
2023/02/19 10:13:20;;;;;;;;;;;;;;;10.12;100.00;101858.38;4978921;28;20364;-53
2023/02/19 10:15:53;;;;;;;;;;;;;;;10.56;100.00;101836.72;4978641;28;20362;-55
2023/02/19 10:18:19;;;;;;;;;;;;;;;10.13;100.00;101695.34;4978555;28;19929;-53
2023/02/19 10:20:45;;;;;;;;;;;;;;;10.28;100.00;101622.53;5017376;28;19917;-55
2023/02/19 10:23:11;;;;;;;;;;;;;;;10.28;100.00;101534.97;5021631;28;19913;-56
2023/02/19 10:25:36;;;;;;;;;;;;;;;9.75;100.00;101430.59;5010086;28;19940;-55
2023/02/19 10:28:01;;;;;;;;;;;;;;;10.20;100.00;101410.44;5014056;28;19941;-55
2023/02/19 10:30:28;;;;;;;;;;;;;;;10.86;100.00;101396.31;5011770;28;19925;-54
2023/02/19 10:32:58;;;;;;;;;;;;;;;10.50;97.05;101296.47;5013609;28;19918;-55
2023/02/19 10:35:23;;;;;;;;;;;;;;;10.25;92.35;101231.06;4978307;28;19925;-53
2023/02/19 10:37:49;;;;;;;;;;;;;;;10.98;87.66;101232.22;5014601;28;19921;-56
2023/02/19 10:40:15;;;;;;;;;;;;;;;11.26;83.46;101169.50;4978745;28;19928;-54
2023/02/19 10:42:43;;;;;;;;;;;;;;;11.28;78.81;101085.22;5020337;28;20387;-56
2023/02/19 10:45:11;;;;;;;;;;;;;;;11.37;75.89;101022.44;5017028;28;19961;-56
2023/02/19 10:47:36;;;;;;;;;;;;;;;11.48;75.36;100973.41;5011637;28;19924;-56
2023/02/19 10:50:01;;;;;;;;;;;;;;;11.49;77.99;100913.19;5022248;28;19922;-56
2023/02/19 10:52:31;;;;;;;;;;;;;;;11.96;77.39;100863.03;5017894;28;19972;-55
2023/02/19 10:55:12;;;;;;;;;;;;;;;11.12;84.79;100729.41;5020242;28;19921;-55
2023/02/19 10:57:37;;;;;;;;;;;;;;;11.00;86.49;100682.22;4981115;28;19918;-56
2023/02/19 11:00:15;;;;;;;;;;;;;;;11.00;87.65;100681.38;4979871;28;20338;-55
2023/02/19 11:02:41;;;;;;;;;;;;;;;11.20;87.04;100702.72;4981849;28;19921;-54
2023/02/19 11:05:06;;;;;;;;;;;;;;;11.94;84.91;100717.59;4981616;28;19928;-55
2023/02/19 11:07:31;;;;;;;;;;;;;;;11.97;85.77;100689.16;4980705;28;19959;-56
2023/02/19 11:09:56;;;;;;;;;;;;;;;11.92;88.23;100652.19;5023022;28;19971;-56
2023/02/19 11:12:26;;;;;;;;;;;;;;;12.33;90.25;100630.19;4980332;28;19932;-54
2023/02/19 11:14:51;;;;;;;;;;;;;;;12.11;95.04;100576.25;4981157;28;20037;-54
2023/02/19 11:17:27;;;;;;;;;;;;;;;12.37;97.80;100554.34;4981017;28;20008;-54
2023/02/19 11:19:52;;;;;;;;;;;;;;;12.22;100.00;100500.34;5011699;28;20828;-54
2023/02/19 11:22:19;;;;;;;;;;;;;;;11.64;100.00;100464.09;5021086;28;19921;-54
2023/02/19 11:24:51;;;;;;;;;;;;;;;12.13;100.00;100490.97;5005056;28;19953;-54
2023/02/19 11:27:22;;;;;;;;;;;;;;;11.45;100.00;100457.47;4980341;28;19922;-54
2023/02/19 11:29:48;;;;;;;;;;;;;;;11.28;100.00;100439.59;4981053;28;19917;-52
2023/02/19 11:32:19;;;;;;;;;;;;;;;10.65;100.00;100427.34;4979829;28;19922;-52
2023/02/19 11:34:44;;;;;;;;;;;;;;;11.64;100.00;100487.31;4980581;28;19960;-53
2023/02/19 11:37:13;;;;;;;;;;;;;;;11.15;100.00;100454.34;4980190;28;19952;-52
2023/02/19 11:39:42;;;;;;;;;;;;;;;11.70;100.00;100464.00;4981483;28;19922;-51
2023/02/19 11:42:14;;;;;;;;;;;;;;;10.81;100.00;100413.47;5014017;28;19922;-52
2023/02/19 11:44:56;;;;;;;;;;;;;;;11.39;100.00;100457.53;4980884;28;19983;-53
2023/02/19 11:47:30;;;;;;;;;;;;;;;11.18;100.00;100444.00;5016507;28;19924;-53
2023/02/19 11:49:58;;;;;;;;;;;;;;;11.23;100.00;100462.84;5008231;28;20028;-53
2023/02/19 11:52:32;;;;;;;;;;;;;;;10.17;100.00;100424.31;4980161;28;20395;-53
2023/02/19 11:55:00;;;;;;;;;;;;;;;11.13;100.00;100491.31;4980639;28;19930;-53
2023/02/19 11:57:28;;;;;;;;;;;;;;;12.23;100.00;100518.41;4980436;28;20407;-54
2023/02/19 12:00:02;;;;;;;;;;;;;;;11.57;100.00;100459.88;4980687;28;19913;-53
2023/02/19 12:02:48;;;;;;;;;;;;;;;12.26;100.00;100460.66;4980981;28;20021;-53
2023/02/19 12:05:28;;;;;;;;;;;;;;;13.10;100.00;100450.63;4980192;28;19933;-54
2023/02/19 12:07:56;;;;;;;;;;;;;;;11.92;100.00;100375.97;5010912;28;19925;-54
2023/02/19 12:10:27;;;;;;;;;;;;;;;11.72;100.00;100359.03;4980652;28;19921;-54
2023/02/19 12:12:52;;;;;;;;;;;;;;;11.19;100.00;100363.19;5027455;28;20375;-54
2023/02/19 12:15:20;;;;;;;;;;;;;;;12.21;100.00;100411.66;4980397;28;19968;-54
2023/02/19 12:18:05;;;;;;;;;;;;;;;13.02;100.00;100419.69;4980297;28;20358;-53
2023/02/19 12:20:49;;;;;;;;;;;;;;;12.61;100.00;100354.13;4978899;28;19917;-53
2023/02/19 12:23:33;;;;;;;;;;;;;;;12.16;100.00;100302.44;4980335;28;19924;-54
2023/02/19 12:26:17;;;;;;;;;;;;;;;13.79;100.00;100336.13;4978512;28;20552;-51
2023/02/19 12:29:00;;;;;;;;;;;;;;;12.95;100.00;100247.47;4981063;28;19968;-51
2023/02/19 12:31:27;;;;;;;;;;;;;;;13.58;100.00;100243.47;4980891;28;19921;-54
2023/02/19 12:34:04;;;;;;;;;;;;;;;13.69;100.00;100213.00;4981108;28;19917;-53
2023/02/19 12:36:42;;;;;;;;;;;;;;;13.72;100.00;100188.75;4980403;28;19924;-55
2023/02/19 12:39:07;;;;;;;;;;;;;;;13.86;100.00;100171.13;5015638;28;19921;-54
2023/02/19 12:41:43;;;;;;;;;;;;;;;14.16;100.00;100159.09;4981230;28;19926;-53
2023/02/19 12:44:18;;;;;;;;;;;;;;;13.08;100.00;100139.44;4980769;28;20433;-54
2023/02/19 12:46:45;;;;;;;;;;;;;;;13.26;100.00;100151.91;5011885;28;19922;-54
2023/02/19 12:49:12;;;;;;;;;;;;;;;13.67;100.00;100164.75;5014633;28;20069;-54
2023/02/19 12:51:42;;;;;;;;;;;;;;;14.41;100.00;100163.53;4982245;28;20315;-50
2023/02/19 12:54:16;;;;;;;;;;;;;;;14.15;100.00;100120.25;5000083;28;19972;-53
2023/02/19 12:56:43;;;;;;;;;;;;;;;13.70;100.00;100108.53;5018716;28;19967;-53
2023/02/19 12:59:35;;;;;;;;;;;;;;;12.05;100.00;100088.31;5014007;28;20322;-52
2023/02/19 13:02:09;;;;;;;;;;;;;;;12.80;100.00;100165.94;4981218;28;19913;-54